sensor_id;sensor_type;location;lat;lon;timestamp;P1;durP1;ratioP1;P2;durP2;ratioP2
23632;SDS011;11993;48.748;9.166;2023-04-01T00:00:15;5.40;;;1.20;;
23632;SDS011;11993;48.748;9.166;2023-04-01T00:02:41;4.70;;;1.10;;
23632;SDS011;11993;48.748;9.166;2023-04-01T00:05:07;1.90;;;1.02;;
23632;SDS011;11993;48.748;9.166;2023-04-01T00:07:35;2.95;;;1.13;;
23632;SDS011;11993;48.748;9.166;2023-04-01T00:10:01;1.58;;;0.70;;
23632;SDS011;11993;48.748;9.166;2023-04-01T00:12:28;4.43;;;0.95;;
23632;SDS011;11993;48.748;9.166;2023-04-01T00:14:53;8.07;;;1.13;;
23632;SDS011;11993;48.748;9.166;2023-04-01T00:17:19;4.35;;;1.25;;
23632;SDS011;11993;48.748;9.166;2023-04-01T00:19:45;3.03;;;1.10;;
23632;SDS011;11993;48.748;9.166;2023-04-01T00:22:10;5.25;;;1.20;;
23632;SDS011;11993;48.748;9.166;2023-04-01T00:24:37;4.47;;;1.27;;
23632;SDS011;11993;48.748;9.166;2023-04-01T00:27:03;3.03;;;1.10;;
23632;SDS011;11993;48.748;9.166;2023-04-01T00:29:28;3.35;;;1.25;;
23632;SDS011;11993;48.748;9.166;2023-04-01T00:31:56;5.78;;;1.48;;
23632;SDS011;11993;48.748;9.166;2023-04-01T00:34:22;3.08;;;1.02;;
23632;SDS011;11993;48.748;9.166;2023-04-01T00:36:48;7.25;;;1.40;;
23632;SDS011;11993;48.748;9.166;2023-04-01T00:39:15;3.55;;;1.13;;
23632;SDS011;11993;48.748;9.166;2023-04-01T00:41:41;4.18;;;1.70;;
23632;SDS011;11993;48.748;9.166;2023-04-01T00:44:22;3.50;;;1.20;;
23632;SDS011;11993;48.748;9.166;2023-04-01T00:46:49;4.97;;;0.98;;
23632;SDS011;11993;48.748;9.166;2023-04-01T00:49:17;4.60;;;1.27;;
23632;SDS011;11993;48.748;9.166;2023-04-01T00:51:46;8.93;;;2.25;;
23632;SDS011;11993;48.748;9.166;2023-04-01T00:54:15;4.03;;;1.40;;
23632;SDS011;11993;48.748;9.166;2023-04-01T00:56:47;5.88;;;1.30;;
23632;SDS011;11993;48.748;9.166;2023-04-01T00:59:21;5.93;;;1.40;;
23632;SDS011;11993;48.748;9.166;2023-04-01T01:01:50;6.32;;;1.33;;
23632;SDS011;11993;48.748;9.166;2023-04-01T01:04:28;6.20;;;1.27;;
23632;SDS011;11993;48.748;9.166;2023-04-01T01:09:31;6.38;;;1.30;;
23632;SDS011;11993;48.748;9.166;2023-04-01T01:12:16;6.90;;;1.45;;
23632;SDS011;11993;48.748;9.166;2023-04-01T01:29:04;3.42;;;1.40;;
23632;SDS011;11993;48.748;9.166;2023-04-01T01:36:42;3.30;;;1.17;;
23632;SDS011;11993;48.748;9.166;2023-04-01T01:39:10;3.97;;;1.25;;
23632;SDS011;11993;48.748;9.166;2023-04-01T01:41:38;4.97;;;1.30;;
23632;SDS011;11993;48.748;9.166;2023-04-01T01:44:09;3.22;;;0.88;;
23632;SDS011;11993;48.748;9.166;2023-04-01T01:46:37;6.40;;;1.35;;
23632;SDS011;11993;48.748;9.166;2023-04-01T01:49:04;4.35;;;1.30;;
23632;SDS011;11993;48.748;9.166;2023-04-01T01:51:33;5.25;;;0.93;;
23632;SDS011;11993;48.748;9.166;2023-04-01T01:53:59;5.68;;;1.25;;
23632;SDS011;11993;48.748;9.166;2023-04-01T01:56:25;4.63;;;1.15;;
23632;SDS011;11993;48.748;9.166;2023-04-01T01:58:55;4.82;;;1.25;;
23632;SDS011;11993;48.748;9.166;2023-04-01T02:01:29;6.00;;;1.30;;
23632;SDS011;11993;48.748;9.166;2023-04-01T02:03:57;2.10;;;0.90;;
23632;SDS011;11993;48.748;9.166;2023-04-01T02:06:25;4.78;;;1.25;;
23632;SDS011;11993;48.748;9.166;2023-04-01T02:09:00;4.95;;;1.30;;
23632;SDS011;11993;48.748;9.166;2023-04-01T02:11:36;3.58;;;1.25;;
23632;SDS011;11993;48.748;9.166;2023-04-01T02:14:22;4.38;;;1.52;;
23632;SDS011;11993;48.748;9.166;2023-04-01T02:17:02;5.72;;;1.00;;
23632;SDS011;11993;48.748;9.166;2023-04-01T02:22:40;2.22;;;1.05;;
23632;SDS011;11993;48.748;9.166;2023-04-01T02:25:19;4.22;;;0.90;;
23632;SDS011;11993;48.748;9.166;2023-04-01T02:27:48;3.03;;;0.98;;
23632;SDS011;11993;48.748;9.166;2023-04-01T02:30:14;3.67;;;1.00;;
23632;SDS011;11993;48.748;9.166;2023-04-01T02:32:42;2.53;;;0.90;;
23632;SDS011;11993;48.748;9.166;2023-04-01T02:35:08;2.63;;;0.90;;
23632;SDS011;11993;48.748;9.166;2023-04-01T02:37:37;1.35;;;0.52;;
23632;SDS011;11993;48.748;9.166;2023-04-01T02:40:04;3.67;;;0.90;;
23632;SDS011;11993;48.748;9.166;2023-04-01T02:42:32;2.90;;;1.20;;
23632;SDS011;11993;48.748;9.166;2023-04-01T02:44:58;1.58;;;0.80;;
23632;SDS011;11993;48.748;9.166;2023-04-01T02:47:24;2.75;;;0.98;;
23632;SDS011;11993;48.748;9.166;2023-04-01T02:49:49;2.67;;;0.88;;
23632;SDS011;11993;48.748;9.166;2023-04-01T02:52:15;1.52;;;0.90;;
23632;SDS011;11993;48.748;9.166;2023-04-01T02:54:40;2.17;;;1.00;;
23632;SDS011;11993;48.748;9.166;2023-04-01T02:57:06;1.95;;;1.08;;
23632;SDS011;11993;48.748;9.166;2023-04-01T02:59:32;3.10;;;0.73;;
23632;SDS011;11993;48.748;9.166;2023-04-01T03:01:57;2.50;;;0.65;;
23632;SDS011;11993;48.748;9.166;2023-04-01T03:04:23;4.47;;;0.85;;
23632;SDS011;11993;48.748;9.166;2023-04-01T03:06:48;1.92;;;0.70;;
23632;SDS011;11993;48.748;9.166;2023-04-01T03:09:14;1.60;;;0.80;;
23632;SDS011;11993;48.748;9.166;2023-04-01T03:11:40;0.70;;;0.52;;
23632;SDS011;11993;48.748;9.166;2023-04-01T03:14:06;6.50;;;0.77;;
23632;SDS011;11993;48.748;9.166;2023-04-01T03:16:32;4.63;;;0.90;;
23632;SDS011;11993;48.748;9.166;2023-04-01T03:18:57;1.92;;;0.70;;
23632;SDS011;11993;48.748;9.166;2023-04-01T03:21:24;1.65;;;0.82;;
23632;SDS011;11993;48.748;9.166;2023-04-01T03:23:50;2.10;;;0.90;;
23632;SDS011;11993;48.748;9.166;2023-04-01T03:26:16;2.70;;;0.65;;
23632;SDS011;11993;48.748;9.166;2023-04-01T03:28:42;4.20;;;0.68;;
23632;SDS011;11993;48.748;9.166;2023-04-01T03:31:08;1.08;;;0.65;;
23632;SDS011;11993;48.748;9.166;2023-04-01T03:33:34;1.13;;;0.70;;
23632;SDS011;11993;48.748;9.166;2023-04-01T03:35:59;1.35;;;0.57;;
23632;SDS011;11993;48.748;9.166;2023-04-01T03:38:25;1.42;;;0.57;;
23632;SDS011;11993;48.748;9.166;2023-04-01T03:40:51;2.60;;;0.85;;
23632;SDS011;11993;48.748;9.166;2023-04-01T03:43:16;1.70;;;0.70;;
23632;SDS011;11993;48.748;9.166;2023-04-01T03:45:49;3.28;;;0.80;;
23632;SDS011;11993;48.748;9.166;2023-04-01T03:48:15;1.70;;;0.77;;
23632;SDS011;11993;48.748;9.166;2023-04-01T03:50:41;1.50;;;0.60;;
23632;SDS011;11993;48.748;9.166;2023-04-01T03:53:07;3.75;;;1.15;;
23632;SDS011;11993;48.748;9.166;2023-04-01T03:55:33;0.88;;;0.50;;
23632;SDS011;11993;48.748;9.166;2023-04-01T03:58:01;1.33;;;0.60;;
23632;SDS011;11993;48.748;9.166;2023-04-01T04:00:27;2.45;;;0.63;;
23632;SDS011;11993;48.748;9.166;2023-04-01T04:02:54;2.45;;;0.65;;
23632;SDS011;11993;48.748;9.166;2023-04-01T04:05:21;2.85;;;0.68;;
23632;SDS011;11993;48.748;9.166;2023-04-01T04:07:50;0.50;;;0.50;;
23632;SDS011;11993;48.748;9.166;2023-04-01T04:10:16;1.13;;;0.60;;
23632;SDS011;11993;48.748;9.166;2023-04-01T04:12:42;2.15;;;0.60;;
23632;SDS011;11993;48.748;9.166;2023-04-01T04:15:09;0.47;;;0.40;;
23632;SDS011;11993;48.748;9.166;2023-04-01T04:17:35;1.00;;;0.50;;
23632;SDS011;11993;48.748;9.166;2023-04-01T04:20:00;1.40;;;0.50;;
23632;SDS011;11993;48.748;9.166;2023-04-01T04:22:26;3.15;;;0.70;;
23632;SDS011;11993;48.748;9.166;2023-04-01T04:24:52;3.92;;;0.80;;
23632;SDS011;11993;48.748;9.166;2023-04-01T04:27:17;2.88;;;1.08;;
23632;SDS011;11993;48.748;9.166;2023-04-01T04:29:43;1.60;;;0.50;;
23632;SDS011;11993;48.748;9.166;2023-04-01T04:32:09;1.92;;;0.60;;
23632;SDS011;11993;48.748;9.166;2023-04-01T04:34:34;1.25;;;0.50;;
23632;SDS011;11993;48.748;9.166;2023-04-01T04:37:00;0.60;;;0.57;;
23632;SDS011;11993;48.748;9.166;2023-04-01T04:39:25;2.33;;;0.70;;
23632;SDS011;11993;48.748;9.166;2023-04-01T04:41:51;0.82;;;0.65;;
23632;SDS011;11993;48.748;9.166;2023-04-01T04:44:17;1.42;;;0.70;;
23632;SDS011;11993;48.748;9.166;2023-04-01T04:46:42;3.65;;;0.50;;
23632;SDS011;11993;48.748;9.166;2023-04-01T04:49:08;4.63;;;0.90;;
23632;SDS011;11993;48.748;9.166;2023-04-01T04:51:33;2.40;;;0.60;;
23632;SDS011;11993;48.748;9.166;2023-04-01T04:54:00;1.02;;;0.60;;
23632;SDS011;11993;48.748;9.166;2023-04-01T04:56:27;2.30;;;0.70;;
23632;SDS011;11993;48.748;9.166;2023-04-01T04:58:53;0.80;;;0.80;;
23632;SDS011;11993;48.748;9.166;2023-04-01T05:01:19;2.38;;;0.80;;
23632;SDS011;11993;48.748;9.166;2023-04-01T05:03:45;3.00;;;0.73;;
23632;SDS011;11993;48.748;9.166;2023-04-01T05:06:12;2.15;;;0.75;;
23632;SDS011;11993;48.748;9.166;2023-04-01T05:08:39;6.82;;;0.90;;
23632;SDS011;11993;48.748;9.166;2023-04-01T05:11:07;6.75;;;1.00;;
23632;SDS011;11993;48.748;9.166;2023-04-01T05:13:51;4.40;;;0.60;;
23632;SDS011;11993;48.748;9.166;2023-04-01T05:16:18;3.83;;;1.00;;
23632;SDS011;11993;48.748;9.166;2023-04-01T05:18:45;3.75;;;0.80;;
23632;SDS011;11993;48.748;9.166;2023-04-01T05:21:11;4.22;;;1.17;;
23632;SDS011;11993;48.748;9.166;2023-04-01T05:23:39;2.67;;;0.80;;
23632;SDS011;11993;48.748;9.166;2023-04-01T05:26:05;2.70;;;1.02;;
23632;SDS011;11993;48.748;9.166;2023-04-01T05:28:32;3.30;;;1.02;;
23632;SDS011;11993;48.748;9.166;2023-04-01T05:30:59;3.72;;;0.95;;
23632;SDS011;11993;48.748;9.166;2023-04-01T05:33:25;3.17;;;1.10;;
23632;SDS011;11993;48.748;9.166;2023-04-01T05:35:52;2.92;;;1.48;;
23632;SDS011;11993;48.748;9.166;2023-04-01T05:38:17;7.28;;;1.60;;
23632;SDS011;11993;48.748;9.166;2023-04-01T05:40:43;5.97;;;1.35;;
23632;SDS011;11993;48.748;9.166;2023-04-01T05:43:09;3.15;;;1.00;;
23632;SDS011;11993;48.748;9.166;2023-04-01T05:45:34;4.03;;;1.08;;
23632;SDS011;11993;48.748;9.166;2023-04-01T05:48:00;2.28;;;0.63;;
23632;SDS011;11993;48.748;9.166;2023-04-01T05:50:25;4.35;;;0.85;;
23632;SDS011;11993;48.748;9.166;2023-04-01T05:52:51;3.40;;;1.20;;
23632;SDS011;11993;48.748;9.166;2023-04-01T05:55:17;1.75;;;0.80;;
23632;SDS011;11993;48.748;9.166;2023-04-01T05:57:44;4.15;;;0.90;;
23632;SDS011;11993;48.748;9.166;2023-04-01T06:00:11;6.40;;;0.98;;
23632;SDS011;11993;48.748;9.166;2023-04-01T06:02:37;3.17;;;0.68;;
23632;SDS011;11993;48.748;9.166;2023-04-01T06:05:14;2.00;;;1.00;;
23632;SDS011;11993;48.748;9.166;2023-04-01T06:07:46;4.38;;;1.23;;
23632;SDS011;11993;48.748;9.166;2023-04-01T06:10:13;1.88;;;0.80;;
23632;SDS011;11993;48.748;9.166;2023-04-01T06:12:51;1.20;;;0.70;;
23632;SDS011;11993;48.748;9.166;2023-04-01T06:15:51;2.95;;;1.30;;
23632;SDS011;11993;48.748;9.166;2023-04-01T06:18:39;1.73;;;0.70;;
23632;SDS011;11993;48.748;9.166;2023-04-01T06:21:26;5.20;;;1.05;;
23632;SDS011;11993;48.748;9.166;2023-04-01T06:24:23;5.28;;;0.98;;
23632;SDS011;11993;48.748;9.166;2023-04-01T06:30:12;5.78;;;1.13;;
23632;SDS011;11993;48.748;9.166;2023-04-01T06:32:37;2.85;;;1.20;;
23632;SDS011;11993;48.748;9.166;2023-04-01T06:35:24;1.88;;;0.80;;
23632;SDS011;11993;48.748;9.166;2023-04-01T06:41:16;2.28;;;0.95;;
23632;SDS011;11993;48.748;9.166;2023-04-01T06:43:55;1.20;;;0.77;;
23632;SDS011;11993;48.748;9.166;2023-04-01T06:49:41;2.67;;;1.00;;
23632;SDS011;11993;48.748;9.166;2023-04-01T06:52:19;3.50;;;1.13;;
23632;SDS011;11993;48.748;9.166;2023-04-01T06:57:45;1.90;;;0.88;;
23632;SDS011;11993;48.748;9.166;2023-04-01T07:00:14;5.82;;;0.90;;
23632;SDS011;11993;48.748;9.166;2023-04-01T07:02:58;5.75;;;1.55;;
23632;SDS011;11993;48.748;9.166;2023-04-01T07:05:39;3.65;;;1.48;;
23632;SDS011;11993;48.748;9.166;2023-04-01T07:08:08;2.92;;;0.75;;
23632;SDS011;11993;48.748;9.166;2023-04-01T07:10:50;3.95;;;0.80;;
23632;SDS011;11993;48.748;9.166;2023-04-01T07:13:26;3.10;;;0.85;;
23632;SDS011;11993;48.748;9.166;2023-04-01T07:15:57;3.03;;;0.77;;
23632;SDS011;11993;48.748;9.166;2023-04-01T07:18:44;4.20;;;1.08;;
23632;SDS011;11993;48.748;9.166;2023-04-01T07:21:33;1.25;;;0.75;;
23632;SDS011;11993;48.748;9.166;2023-04-01T07:24:05;5.78;;;1.10;;
23632;SDS011;11993;48.748;9.166;2023-04-01T07:26:38;4.07;;;1.10;;
23632;SDS011;11993;48.748;9.166;2023-04-01T07:29:05;4.10;;;1.15;;
23632;SDS011;11993;48.748;9.166;2023-04-01T07:32:09;4.97;;;1.02;;
23632;SDS011;11993;48.748;9.166;2023-04-01T07:34:30;3.50;;;1.00;;
23632;SDS011;11993;48.748;9.166;2023-04-01T07:42:25;3.78;;;0.80;;
23632;SDS011;11993;48.748;9.166;2023-04-01T07:50:22;3.60;;;0.90;;
23632;SDS011;11993;48.748;9.166;2023-04-01T07:55:45;2.28;;;0.98;;
23632;SDS011;11993;48.748;9.166;2023-04-01T08:01:01;1.27;;;0.80;;
23632;SDS011;11993;48.748;9.166;2023-04-01T08:03:35;2.70;;;0.90;;
23632;SDS011;11993;48.748;9.166;2023-04-01T08:06:12;1.88;;;0.90;;
23632;SDS011;11993;48.748;9.166;2023-04-01T08:17:11;1.92;;;0.65;;
23632;SDS011;11993;48.748;9.166;2023-04-01T08:22:41;1.80;;;0.75;;
23632;SDS011;11993;48.748;9.166;2023-04-01T08:25:20;2.00;;;0.80;;
23632;SDS011;11993;48.748;9.166;2023-04-01T08:30:38;2.88;;;1.00;;
23632;SDS011;11993;48.748;9.166;2023-04-01T08:33:31;4.15;;;0.80;;
23632;SDS011;11993;48.748;9.166;2023-04-01T08:38:36;3.10;;;1.20;;
23632;SDS011;11993;48.748;9.166;2023-04-01T08:41:21;2.15;;;0.90;;
23632;SDS011;11993;48.748;9.166;2023-04-01T08:55:19;2.58;;;0.75;;
23632;SDS011;11993;48.748;9.166;2023-04-01T08:58:11;3.22;;;0.90;;
23632;SDS011;11993;48.748;9.166;2023-04-01T09:18:24;1.55;;;0.85;;
23632;SDS011;11993;48.748;9.166;2023-04-01T09:24:19;2.95;;;0.90;;
23632;SDS011;11993;48.748;9.166;2023-04-01T09:27:10;1.77;;;0.75;;
23632;SDS011;11993;48.748;9.166;2023-04-01T09:33:17;2.50;;;0.70;;
23632;SDS011;11993;48.748;9.166;2023-04-01T09:36:01;0.98;;;0.70;;
23632;SDS011;11993;48.748;9.166;2023-04-01T09:41:30;2.13;;;0.63;;
23632;SDS011;11993;48.748;9.166;2023-04-01T09:44:01;0.40;;;0.40;;
23632;SDS011;11993;48.748;9.166;2023-04-01T09:46:34;2.17;;;1.23;;
23632;SDS011;11993;48.748;9.166;2023-04-01T09:49:55;1.00;;;0.45;;
23632;SDS011;11993;48.748;9.166;2023-04-01T09:52:32;2.20;;;0.55;;
23632;SDS011;11993;48.748;9.166;2023-04-01T10:12:36;2.08;;;0.57;;
23632;SDS011;11993;48.748;9.166;2023-04-01T10:24:33;1.00;;;0.50;;
23632;SDS011;11993;48.748;9.166;2023-04-01T10:43:47;2.42;;;1.45;;
23632;SDS011;11993;48.748;9.166;2023-04-01T10:54:47;0.63;;;0.40;;
23632;SDS011;11993;48.748;9.166;2023-04-01T10:57:42;0.40;;;0.40;;
23632;SDS011;11993;48.748;9.166;2023-04-01T11:00:33;0.57;;;0.40;;
23632;SDS011;11993;48.748;9.166;2023-04-01T11:22:26;0.68;;;0.60;;
23632;SDS011;11993;48.748;9.166;2023-04-01T11:30:42;0.45;;;0.45;;
23632;SDS011;11993;48.748;9.166;2023-04-01T11:33:36;1.15;;;0.50;;
23632;SDS011;11993;48.748;9.166;2023-04-01T11:39:43;1.15;;;0.50;;
23632;SDS011;11993;48.748;9.166;2023-04-01T11:53:41;0.40;;;0.40;;
23632;SDS011;11993;48.748;9.166;2023-04-01T11:59:10;0.30;;;0.30;;
23632;SDS011;11993;48.748;9.166;2023-04-01T12:08:02;1.08;;;0.60;;
23632;SDS011;11993;48.748;9.166;2023-04-01T12:10:59;0.30;;;0.30;;
23632;SDS011;11993;48.748;9.166;2023-04-01T12:13:50;1.35;;;0.43;;
23632;SDS011;11993;48.748;9.166;2023-04-01T12:19:32;1.27;;;0.60;;
23632;SDS011;11993;48.748;9.166;2023-04-01T12:27:40;0.50;;;0.50;;
23632;SDS011;11993;48.748;9.166;2023-04-01T12:30:15;0.25;;;0.25;;
23632;SDS011;11993;48.748;9.166;2023-04-01T12:33:00;1.83;;;1.02;;
23632;SDS011;11993;48.748;9.166;2023-04-01T12:52:48;0.45;;;0.45;;
23632;SDS011;11993;48.748;9.166;2023-04-01T12:55:38;0.85;;;0.30;;
23632;SDS011;11993;48.748;9.166;2023-04-01T13:00:54;0.30;;;0.30;;
23632;SDS011;11993;48.748;9.166;2023-04-01T13:10:06;0.30;;;0.30;;
23632;SDS011;11993;48.748;9.166;2023-04-01T13:12:39;0.45;;;0.45;;
23632;SDS011;11993;48.748;9.166;2023-04-01T13:17:53;0.40;;;0.40;;
23632;SDS011;11993;48.748;9.166;2023-04-01T13:20:48;1.30;;;0.40;;
23632;SDS011;11993;48.748;9.166;2023-04-01T13:29:23;0.90;;;0.43;;
23632;SDS011;11993;48.748;9.166;2023-04-01T13:40:39;0.40;;;0.40;;
23632;SDS011;11993;48.748;9.166;2023-04-01T13:43:36;0.50;;;0.50;;
23632;SDS011;11993;48.748;9.166;2023-04-01T13:46:21;0.35;;;0.35;;
23632;SDS011;11993;48.748;9.166;2023-04-01T13:52:00;0.57;;;0.40;;
23632;SDS011;11993;48.748;9.166;2023-04-01T14:03:26;0.30;;;0.30;;
23632;SDS011;11993;48.748;9.166;2023-04-01T14:11:17;0.32;;;0.32;;
23632;SDS011;11993;48.748;9.166;2023-04-01T14:14:16;0.30;;;0.30;;
23632;SDS011;11993;48.748;9.166;2023-04-01T14:17:17;0.30;;;0.30;;
23632;SDS011;11993;48.748;9.166;2023-04-01T14:54:30;0.73;;;0.52;;
23632;SDS011;11993;48.748;9.166;2023-04-01T14:59:39;0.30;;;0.30;;
23632;SDS011;11993;48.748;9.166;2023-04-01T15:02:00;0.35;;;0.30;;
23632;SDS011;11993;48.748;9.166;2023-04-01T15:04:37;0.60;;;0.60;;
23632;SDS011;11993;48.748;9.166;2023-04-01T15:07:33;0.40;;;0.40;;
23632;SDS011;11993;48.748;9.166;2023-04-01T15:13:15;0.50;;;0.50;;
23632;SDS011;11993;48.748;9.166;2023-04-01T15:15:59;0.70;;;0.60;;
23632;SDS011;11993;48.748;9.166;2023-04-01T15:21:13;0.50;;;0.50;;
23632;SDS011;11993;48.748;9.166;2023-04-01T15:27:06;0.80;;;0.80;;
23632;SDS011;11993;48.748;9.166;2023-04-01T15:31:49;0.50;;;0.50;;
23632;SDS011;11993;48.748;9.166;2023-04-01T15:34:25;0.82;;;0.50;;
23632;SDS011;11993;48.748;9.166;2023-04-01T15:37:02;0.40;;;0.40;;
23632;SDS011;11993;48.748;9.166;2023-04-01T15:44:54;1.85;;;0.63;;
23632;SDS011;11993;48.748;9.166;2023-04-01T15:47:39;1.15;;;0.50;;
23632;SDS011;11993;48.748;9.166;2023-04-01T16:01:39;2.45;;;0.85;;
23632;SDS011;11993;48.748;9.166;2023-04-01T16:04:31;0.60;;;0.50;;
23632;SDS011;11993;48.748;9.166;2023-04-01T16:07:28;0.60;;;0.60;;
23632;SDS011;11993;48.748;9.166;2023-04-01T16:16:16;0.65;;;0.50;;
23632;SDS011;11993;48.748;9.166;2023-04-01T16:24:17;0.70;;;0.47;;
23632;SDS011;11993;48.748;9.166;2023-04-01T16:27:04;1.30;;;0.60;;
23632;SDS011;11993;48.748;9.166;2023-04-01T16:29:40;2.35;;;0.90;;
23632;SDS011;11993;48.748;9.166;2023-04-01T16:32:31;0.70;;;0.60;;
23632;SDS011;11993;48.748;9.166;2023-04-01T16:38:03;0.43;;;0.43;;
23632;SDS011;11993;48.748;9.166;2023-04-01T16:40:36;1.27;;;0.65;;
23632;SDS011;11993;48.748;9.166;2023-04-01T16:43:11;1.30;;;0.70;;
23632;SDS011;11993;48.748;9.166;2023-04-01T16:46:26;1.77;;;0.70;;
23632;SDS011;11993;48.748;9.166;2023-04-01T16:48:58;0.73;;;0.55;;
23632;SDS011;11993;48.748;9.166;2023-04-01T16:57:13;1.75;;;0.70;;
23632;SDS011;11993;48.748;9.166;2023-04-01T17:05:19;1.73;;;0.80;;
23632;SDS011;11993;48.748;9.166;2023-04-01T17:10:50;1.38;;;0.65;;
23632;SDS011;11993;48.748;9.166;2023-04-01T17:13:34;1.38;;;0.82;;
23632;SDS011;11993;48.748;9.166;2023-04-01T17:16:04;0.95;;;0.68;;
23632;SDS011;11993;48.748;9.166;2023-04-01T17:21:20;4.07;;;1.88;;
23632;SDS011;11993;48.748;9.166;2023-04-01T17:24:00;3.78;;;1.80;;
23632;SDS011;11993;48.748;9.166;2023-04-01T17:31:46;2.17;;;0.90;;
23632;SDS011;11993;48.748;9.166;2023-04-01T17:43:10;1.05;;;0.70;;
23632;SDS011;11993;48.748;9.166;2023-04-01T17:45:53;2.00;;;1.00;;
23632;SDS011;11993;48.748;9.166;2023-04-01T17:54:11;2.25;;;0.93;;
23632;SDS011;11993;48.748;9.166;2023-04-01T17:59:35;2.30;;;0.80;;
23632;SDS011;11993;48.748;9.166;2023-04-01T18:04:40;1.23;;;0.93;;
23632;SDS011;11993;48.748;9.166;2023-04-01T18:10:23;2.67;;;1.20;;
23632;SDS011;11993;48.748;9.166;2023-04-01T18:13:05;2.72;;;1.27;;
23632;SDS011;11993;48.748;9.166;2023-04-01T18:19:06;3.95;;;1.20;;
23632;SDS011;11993;48.748;9.166;2023-04-01T18:21:50;0.98;;;0.80;;
23632;SDS011;11993;48.748;9.166;2023-04-01T18:27:29;3.08;;;0.90;;
23632;SDS011;11993;48.748;9.166;2023-04-01T18:32:33;2.75;;;1.40;;
23632;SDS011;11993;48.748;9.166;2023-04-01T18:38:11;1.08;;;0.95;;
23632;SDS011;11993;48.748;9.166;2023-04-01T18:45:43;1.52;;;0.80;;
23632;SDS011;11993;48.748;9.166;2023-04-01T18:51:13;1.95;;;0.93;;
23632;SDS011;11993;48.748;9.166;2023-04-01T18:53:57;1.27;;;0.70;;
23632;SDS011;11993;48.748;9.166;2023-04-01T18:56:30;2.85;;;0.75;;
23632;SDS011;11993;48.748;9.166;2023-04-01T19:02:00;1.00;;;0.70;;
23632;SDS011;11993;48.748;9.166;2023-04-01T19:10:56;1.35;;;0.75;;
23632;SDS011;11993;48.748;9.166;2023-04-01T19:13:40;4.88;;;0.95;;
23632;SDS011;11993;48.748;9.166;2023-04-01T19:19:16;4.25;;;1.10;;
23632;SDS011;11993;48.748;9.166;2023-04-01T19:21:44;2.58;;;0.70;;
23632;SDS011;11993;48.748;9.166;2023-04-01T19:30:02;3.83;;;1.27;;
23632;SDS011;11993;48.748;9.166;2023-04-01T19:35:26;2.13;;;1.15;;
23632;SDS011;11993;48.748;9.166;2023-04-01T19:37:59;2.35;;;1.13;;
23632;SDS011;11993;48.748;9.166;2023-04-01T19:46:36;1.75;;;0.95;;
23632;SDS011;11993;48.748;9.166;2023-04-01T19:49:24;5.30;;;0.93;;
23632;SDS011;11993;48.748;9.166;2023-04-01T19:57:43;0.93;;;0.70;;
23632;SDS011;11993;48.748;9.166;2023-04-01T20:00:24;2.45;;;0.90;;
23632;SDS011;11993;48.748;9.166;2023-04-01T20:03:13;1.73;;;0.80;;
23632;SDS011;11993;48.748;9.166;2023-04-01T20:09:06;0.98;;;0.73;;
23632;SDS011;11993;48.748;9.166;2023-04-01T20:14:57;1.60;;;0.90;;
23632;SDS011;11993;48.748;9.166;2023-04-01T20:17:38;1.17;;;0.93;;
23632;SDS011;11993;48.748;9.166;2023-04-01T20:25:27;1.63;;;0.93;;
23632;SDS011;11993;48.748;9.166;2023-04-01T20:48:01;3.88;;;0.63;;
23632;SDS011;11993;48.748;9.166;2023-04-01T20:53:43;3.03;;;0.95;;
23632;SDS011;11993;48.748;9.166;2023-04-01T20:56:32;1.48;;;1.10;;
23632;SDS011;11993;48.748;9.166;2023-04-01T20:59:24;1.42;;;1.10;;
23632;SDS011;11993;48.748;9.166;2023-04-01T21:08:15;2.40;;;1.17;;
23632;SDS011;11993;48.748;9.166;2023-04-01T21:11:01;1.45;;;1.15;;
23632;SDS011;11993;48.748;9.166;2023-04-01T21:13:58;4.15;;;1.00;;
23632;SDS011;11993;48.748;9.166;2023-04-01T21:27:45;2.22;;;1.20;;
23632;SDS011;11993;48.748;9.166;2023-04-01T21:33:18;2.25;;;0.90;;
23632;SDS011;11993;48.748;9.166;2023-04-01T21:38:49;2.40;;;1.25;;
23632;SDS011;11993;48.748;9.166;2023-04-01T21:46:51;3.30;;;0.80;;
23632;SDS011;11993;48.748;9.166;2023-04-01T21:57:34;2.42;;;0.70;;
23632;SDS011;11993;48.748;9.166;2023-04-01T22:03:00;0.80;;;0.50;;
23632;SDS011;11993;48.748;9.166;2023-04-01T22:06:34;1.17;;;0.73;;
23632;SDS011;11993;48.748;9.166;2023-04-01T22:11:45;0.85;;;0.70;;
23632;SDS011;11993;48.748;9.166;2023-04-01T22:19:56;0.82;;;0.77;;
23632;SDS011;11993;48.748;9.166;2023-04-01T22:22:31;0.95;;;0.70;;
23632;SDS011;11993;48.748;9.166;2023-04-01T22:25:25;2.28;;;0.80;;
23632;SDS011;11993;48.748;9.166;2023-04-01T22:28:09;2.28;;;0.80;;
23632;SDS011;11993;48.748;9.166;2023-04-01T22:30:49;2.08;;;0.85;;
23632;SDS011;11993;48.748;9.166;2023-04-01T22:33:45;4.50;;;0.90;;
23632;SDS011;11993;48.748;9.166;2023-04-01T22:36:50;1.02;;;0.90;;
23632;SDS011;11993;48.748;9.166;2023-04-01T22:39:47;1.25;;;0.80;;
23632;SDS011;11993;48.748;9.166;2023-04-01T22:42:42;0.75;;;0.60;;
23632;SDS011;11993;48.748;9.166;2023-04-01T22:52:47;0.95;;;0.52;;
23632;SDS011;11993;48.748;9.166;2023-04-01T22:58:14;1.25;;;0.70;;
23632;SDS011;11993;48.748;9.166;2023-04-01T23:00:42;2.30;;;0.70;;
23632;SDS011;11993;48.748;9.166;2023-04-01T23:03:19;0.60;;;0.60;;
23632;SDS011;11993;48.748;9.166;2023-04-01T23:05:57;1.85;;;0.57;;
23632;SDS011;11993;48.748;9.166;2023-04-01T23:11:16;0.98;;;0.55;;
23632;SDS011;11993;48.748;9.166;2023-04-01T23:19:37;2.00;;;0.80;;
23632;SDS011;11993;48.748;9.166;2023-04-01T23:22:13;2.47;;;0.70;;
23632;SDS011;11993;48.748;9.166;2023-04-01T23:24:52;0.55;;;0.55;;
23632;SDS011;11993;48.748;9.166;2023-04-01T23:27:25;1.10;;;0.60;;
23632;SDS011;11993;48.748;9.166;2023-04-01T23:30:04;1.00;;;0.60;;
23632;SDS011;11993;48.748;9.166;2023-04-01T23:32:49;1.63;;;0.80;;
23632;SDS011;11993;48.748;9.166;2023-04-01T23:35:15;2.38;;;0.82;;
23632;SDS011;11993;48.748;9.166;2023-04-01T23:37:41;1.25;;;0.60;;
23632;SDS011;11993;48.748;9.166;2023-04-01T23:40:10;1.02;;;0.75;;
23632;SDS011;11993;48.748;9.166;2023-04-01T23:42:39;1.90;;;0.80;;
23632;SDS011;11993;48.748;9.166;2023-04-01T23:45:11;1.20;;;0.63;;
23632;SDS011;11993;48.748;9.166;2023-04-01T23:47:39;1.17;;;0.60;;
23632;SDS011;11993;48.748;9.166;2023-04-01T23:50:07;2.70;;;1.23;;
23632;SDS011;11993;48.748;9.166;2023-04-01T23:53:17;1.27;;;0.75;;
23632;SDS011;11993;48.748;9.166;2023-04-01T23:55:44;0.77;;;0.70;;
